Terminal Aerodrome Forecast
Issued by NWS

Home | Current Version | Previous Version | Text Only | Print | Product List | Glossary On
Versions: 1 2 3 4 5 6 7 8 9 10 11 12 13 14 15
000
FTUS43 KMPX 270900 AAA
TAFRNH
TAF AMD
KRNH 270923Z 2709/2806 01007KT 2SM -SN BR SCT007 OVC013
     FM271330 34008KT 4SM -SN BR OVC014
     FM271630 32008KT P6SM BKN018 OVC040
     FM272000 28008KT P6SM SCT020 BKN040
     FM280000 25006KT P6SM SCT200=

USA.gov is the U.S. government's official web portal to all federal, state and local government web resources and services.